sensor_id;sensor_type;location;lat;lon;timestamp;P1;durP1;ratioP1;P2;durP2;ratioP2
12042;SDS011;6082;49.306;12.862;2024-03-08T00:02:16;17.77;;;9.10;;
12042;SDS011;6082;49.306;12.862;2024-03-08T00:04:42;19.00;;;9.70;;
12042;SDS011;6082;49.306;12.862;2024-03-08T00:07:08;17.10;;;9.70;;
12042;SDS011;6082;49.306;12.862;2024-03-08T00:09:33;19.00;;;8.80;;
12042;SDS011;6082;49.306;12.862;2024-03-08T00:11:59;17.43;;;10.07;;
12042;SDS011;6082;49.306;12.862;2024-03-08T00:14:25;17.27;;;9.57;;
12042;SDS011;6082;49.306;12.862;2024-03-08T00:16:50;18.07;;;9.27;;
12042;SDS011;6082;49.306;12.862;2024-03-08T00:19:18;19.30;;;9.37;;
12042;SDS011;6082;49.306;12.862;2024-03-08T00:21:43;19.63;;;9.57;;
12042;SDS011;6082;49.306;12.862;2024-03-08T00:24:10;15.30;;;9.17;;
12042;SDS011;6082;49.306;12.862;2024-03-08T00:26:37;15.37;;;8.50;;
12042;SDS011;6082;49.306;12.862;2024-03-08T00:29:02;19.37;;;9.27;;
12042;SDS011;6082;49.306;12.862;2024-03-08T00:31:28;18.60;;;9.43;;
12042;SDS011;6082;49.306;12.862;2024-03-08T00:33:56;14.83;;;8.57;;
12042;SDS011;6082;49.306;12.862;2024-03-08T00:36:22;17.93;;;9.23;;
12042;SDS011;6082;49.306;12.862;2024-03-08T00:38:49;25.00;;;10.60;;
12042;SDS011;6082;49.306;12.862;2024-03-08T00:41:15;18.93;;;10.70;;
12042;SDS011;6082;49.306;12.862;2024-03-08T00:43:41;17.10;;;9.37;;
12042;SDS011;6082;49.306;12.862;2024-03-08T00:46:07;17.00;;;9.20;;
12042;SDS011;6082;49.306;12.862;2024-03-08T00:48:32;21.13;;;10.43;;
12042;SDS011;6082;49.306;12.862;2024-03-08T00:50:58;19.70;;;9.47;;
12042;SDS011;6082;49.306;12.862;2024-03-08T00:53:24;19.27;;;9.10;;
12042;SDS011;6082;49.306;12.862;2024-03-08T00:55:50;18.23;;;9.50;;
12042;SDS011;6082;49.306;12.862;2024-03-08T00:58:15;19.63;;;9.80;;
12042;SDS011;6082;49.306;12.862;2024-03-08T01:00:41;18.00;;;10.10;;
12042;SDS011;6082;49.306;12.862;2024-03-08T01:03:07;18.90;;;9.70;;
12042;SDS011;6082;49.306;12.862;2024-03-08T01:05:33;18.37;;;9.97;;
12042;SDS011;6082;49.306;12.862;2024-03-08T01:08:00;21.20;;;10.13;;
12042;SDS011;6082;49.306;12.862;2024-03-08T01:10:28;15.97;;;9.07;;
12042;SDS011;6082;49.306;12.862;2024-03-08T01:12:54;16.97;;;9.07;;
12042;SDS011;6082;49.306;12.862;2024-03-08T01:15:21;15.63;;;9.23;;
12042;SDS011;6082;49.306;12.862;2024-03-08T01:17:48;18.37;;;9.73;;
12042;SDS011;6082;49.306;12.862;2024-03-08T01:20:15;19.23;;;9.57;;
12042;SDS011;6082;49.306;12.862;2024-03-08T01:22:41;16.60;;;9.50;;
12042;SDS011;6082;49.306;12.862;2024-03-08T01:25:07;15.87;;;8.47;;
12042;SDS011;6082;49.306;12.862;2024-03-08T01:27:34;18.23;;;9.17;;
12042;SDS011;6082;49.306;12.862;2024-03-08T01:30:02;18.83;;;10.27;;
12042;SDS011;6082;49.306;12.862;2024-03-08T01:32:28;19.00;;;9.47;;
12042;SDS011;6082;49.306;12.862;2024-03-08T01:34:54;17.47;;;8.90;;
12042;SDS011;6082;49.306;12.862;2024-03-08T01:37:20;17.67;;;9.43;;
12042;SDS011;6082;49.306;12.862;2024-03-08T01:39:45;18.93;;;10.10;;
12042;SDS011;6082;49.306;12.862;2024-03-08T01:42:12;20.17;;;10.13;;
12042;SDS011;6082;49.306;12.862;2024-03-08T01:44:40;15.47;;;8.37;;
12042;SDS011;6082;49.306;12.862;2024-03-08T01:47:06;20.23;;;9.33;;
12042;SDS011;6082;49.306;12.862;2024-03-08T01:49:32;18.03;;;9.53;;
12042;SDS011;6082;49.306;12.862;2024-03-08T01:51:58;19.97;;;9.37;;
12042;SDS011;6082;49.306;12.862;2024-03-08T01:54:24;18.77;;;10.47;;
12042;SDS011;6082;49.306;12.862;2024-03-08T01:56:51;20.70;;;9.50;;
12042;SDS011;6082;49.306;12.862;2024-03-08T01:59:18;20.40;;;10.10;;
12042;SDS011;6082;49.306;12.862;2024-03-08T02:01:44;21.40;;;9.60;;
12042;SDS011;6082;49.306;12.862;2024-03-08T02:04:10;23.57;;;10.03;;
12042;SDS011;6082;49.306;12.862;2024-03-08T02:06:36;20.60;;;9.67;;
12042;SDS011;6082;49.306;12.862;2024-03-08T02:09:03;18.73;;;9.93;;
12042;SDS011;6082;49.306;12.862;2024-03-08T02:11:31;19.60;;;10.60;;
12042;SDS011;6082;49.306;12.862;2024-03-08T02:13:57;19.87;;;10.20;;
12042;SDS011;6082;49.306;12.862;2024-03-08T02:16:23;17.90;;;9.20;;
12042;SDS011;6082;49.306;12.862;2024-03-08T02:18:49;20.23;;;10.77;;
12042;SDS011;6082;49.306;12.862;2024-03-08T02:21:16;19.03;;;9.57;;
12042;SDS011;6082;49.306;12.862;2024-03-08T02:23:46;23.57;;;10.73;;
12042;SDS011;6082;49.306;12.862;2024-03-08T02:26:12;22.27;;;11.27;;
12042;SDS011;6082;49.306;12.862;2024-03-08T02:28:37;25.67;;;11.60;;
12042;SDS011;6082;49.306;12.862;2024-03-08T02:31:04;22.37;;;11.10;;
12042;SDS011;6082;49.306;12.862;2024-03-08T02:33:33;18.67;;;10.77;;
12042;SDS011;6082;49.306;12.862;2024-03-08T02:35:59;24.53;;;11.03;;
12042;SDS011;6082;49.306;12.862;2024-03-08T02:38:25;20.63;;;11.30;;
12042;SDS011;6082;49.306;12.862;2024-03-08T02:40:51;24.97;;;11.37;;
12042;SDS011;6082;49.306;12.862;2024-03-08T02:43:18;22.87;;;10.60;;
12042;SDS011;6082;49.306;12.862;2024-03-08T02:45:45;24.57;;;11.77;;
12042;SDS011;6082;49.306;12.862;2024-03-08T02:48:12;25.37;;;11.63;;
12042;SDS011;6082;49.306;12.862;2024-03-08T02:50:38;23.33;;;10.80;;
12042;SDS011;6082;49.306;12.862;2024-03-08T02:53:10;24.00;;;11.60;;
12042;SDS011;6082;49.306;12.862;2024-03-08T02:55:40;21.10;;;11.47;;
12042;SDS011;6082;49.306;12.862;2024-03-08T02:58:06;22.33;;;10.23;;
12042;SDS011;6082;49.306;12.862;2024-03-08T03:00:36;27.33;;;11.83;;
12042;SDS011;6082;49.306;12.862;2024-03-08T03:03:02;22.27;;;11.43;;
12042;SDS011;6082;49.306;12.862;2024-03-08T03:05:28;21.93;;;10.33;;
12042;SDS011;6082;49.306;12.862;2024-03-08T03:07:55;22.90;;;12.27;;
12042;SDS011;6082;49.306;12.862;2024-03-08T03:10:21;23.50;;;11.23;;
12042;SDS011;6082;49.306;12.862;2024-03-08T03:12:47;22.33;;;12.03;;
12042;SDS011;6082;49.306;12.862;2024-03-08T03:15:16;26.03;;;11.53;;
12042;SDS011;6082;49.306;12.862;2024-03-08T03:17:46;22.33;;;12.07;;
12042;SDS011;6082;49.306;12.862;2024-03-08T03:20:12;25.93;;;11.77;;
12042;SDS011;6082;49.306;12.862;2024-03-08T03:22:39;23.57;;;11.60;;
12042;SDS011;6082;49.306;12.862;2024-03-08T03:25:06;27.60;;;11.40;;
12042;SDS011;6082;49.306;12.862;2024-03-08T03:27:34;26.13;;;11.90;;
12042;SDS011;6082;49.306;12.862;2024-03-08T03:30:00;24.13;;;11.47;;
12042;SDS011;6082;49.306;12.862;2024-03-08T03:32:45;28.80;;;12.60;;
12042;SDS011;6082;49.306;12.862;2024-03-08T03:35:16;22.83;;;10.83;;
12042;SDS011;6082;49.306;12.862;2024-03-08T03:37:42;25.37;;;11.17;;
12042;SDS011;6082;49.306;12.862;2024-03-08T03:40:10;25.63;;;12.93;;
12042;SDS011;6082;49.306;12.862;2024-03-08T03:42:38;27.40;;;11.50;;
12042;SDS011;6082;49.306;12.862;2024-03-08T03:45:05;27.97;;;12.87;;
12042;SDS011;6082;49.306;12.862;2024-03-08T03:47:31;23.17;;;11.23;;
12042;SDS011;6082;49.306;12.862;2024-03-08T03:49:57;24.77;;;12.20;;
12042;SDS011;6082;49.306;12.862;2024-03-08T03:52:26;27.57;;;11.20;;
12042;SDS011;6082;49.306;12.862;2024-03-08T03:54:52;22.43;;;12.03;;
12042;SDS011;6082;49.306;12.862;2024-03-08T03:57:18;21.97;;;11.63;;
12042;SDS011;6082;49.306;12.862;2024-03-08T03:59:45;25.47;;;11.83;;
12042;SDS011;6082;49.306;12.862;2024-03-08T04:02:12;25.93;;;12.27;;
12042;SDS011;6082;49.306;12.862;2024-03-08T04:04:38;23.93;;;11.53;;
12042;SDS011;6082;49.306;12.862;2024-03-08T04:07:04;22.80;;;10.67;;
12042;SDS011;6082;49.306;12.862;2024-03-08T04:09:30;24.53;;;11.10;;
12042;SDS011;6082;49.306;12.862;2024-03-08T04:11:55;21.23;;;10.90;;
12042;SDS011;6082;49.306;12.862;2024-03-08T04:14:21;20.63;;;10.77;;
12042;SDS011;6082;49.306;12.862;2024-03-08T04:16:48;24.60;;;11.00;;
12042;SDS011;6082;49.306;12.862;2024-03-08T04:19:13;24.47;;;12.33;;
12042;SDS011;6082;49.306;12.862;2024-03-08T04:21:39;23.23;;;10.57;;
12042;SDS011;6082;49.306;12.862;2024-03-08T04:24:05;27.73;;;11.83;;
12042;SDS011;6082;49.306;12.862;2024-03-08T04:26:31;23.60;;;10.73;;
12042;SDS011;6082;49.306;12.862;2024-03-08T04:28:57;29.73;;;11.47;;
12042;SDS011;6082;49.306;12.862;2024-03-08T04:31:22;22.83;;;11.03;;
12042;SDS011;6082;49.306;12.862;2024-03-08T04:33:48;23.60;;;10.87;;
12042;SDS011;6082;49.306;12.862;2024-03-08T04:36:14;23.10;;;11.33;;
12042;SDS011;6082;49.306;12.862;2024-03-08T04:38:40;23.13;;;11.27;;
12042;SDS011;6082;49.306;12.862;2024-03-08T04:41:07;25.13;;;11.90;;
12042;SDS011;6082;49.306;12.862;2024-03-08T04:43:34;21.93;;;11.00;;
12042;SDS011;6082;49.306;12.862;2024-03-08T04:46:01;26.27;;;11.30;;
12042;SDS011;6082;49.306;12.862;2024-03-08T04:48:28;23.87;;;11.47;;
12042;SDS011;6082;49.306;12.862;2024-03-08T04:50:54;22.80;;;10.43;;
12042;SDS011;6082;49.306;12.862;2024-03-08T04:53:20;27.40;;;12.10;;
12042;SDS011;6082;49.306;12.862;2024-03-08T04:55:46;25.47;;;11.17;;
12042;SDS011;6082;49.306;12.862;2024-03-08T04:58:12;24.20;;;12.10;;
12042;SDS011;6082;49.306;12.862;2024-03-08T05:00:38;26.33;;;12.07;;
12042;SDS011;6082;49.306;12.862;2024-03-08T05:03:03;26.90;;;11.33;;
12042;SDS011;6082;49.306;12.862;2024-03-08T05:05:30;27.63;;;12.60;;
12042;SDS011;6082;49.306;12.862;2024-03-08T05:07:56;23.27;;;11.20;;
12042;SDS011;6082;49.306;12.862;2024-03-08T05:10:21;24.67;;;11.50;;
12042;SDS011;6082;49.306;12.862;2024-03-08T05:12:47;20.73;;;11.00;;
12042;SDS011;6082;49.306;12.862;2024-03-08T05:15:13;25.60;;;11.00;;
12042;SDS011;6082;49.306;12.862;2024-03-08T05:17:39;29.13;;;12.20;;
12042;SDS011;6082;49.306;12.862;2024-03-08T05:20:05;24.47;;;10.93;;
12042;SDS011;6082;49.306;12.862;2024-03-08T05:22:33;20.73;;;11.33;;
12042;SDS011;6082;49.306;12.862;2024-03-08T05:24:59;21.40;;;11.13;;
12042;SDS011;6082;49.306;12.862;2024-03-08T05:27:27;23.70;;;10.50;;
12042;SDS011;6082;49.306;12.862;2024-03-08T05:29:53;29.47;;;12.23;;
12042;SDS011;6082;49.306;12.862;2024-03-08T05:32:19;24.47;;;11.10;;
12042;SDS011;6082;49.306;12.862;2024-03-08T05:34:45;29.07;;;12.43;;
12042;SDS011;6082;49.306;12.862;2024-03-08T05:37:10;27.90;;;11.33;;
12042;SDS011;6082;49.306;12.862;2024-03-08T05:39:36;25.37;;;11.50;;
12042;SDS011;6082;49.306;12.862;2024-03-08T05:42:02;26.33;;;10.83;;
12042;SDS011;6082;49.306;12.862;2024-03-08T05:44:27;24.50;;;10.40;;
12042;SDS011;6082;49.306;12.862;2024-03-08T05:46:56;24.03;;;11.47;;
12042;SDS011;6082;49.306;12.862;2024-03-08T05:49:21;21.67;;;10.80;;
12042;SDS011;6082;49.306;12.862;2024-03-08T05:51:47;29.50;;;11.33;;
12042;SDS011;6082;49.306;12.862;2024-03-08T05:54:13;23.40;;;11.20;;
12042;SDS011;6082;49.306;12.862;2024-03-08T05:56:39;27.03;;;11.00;;
12042;SDS011;6082;49.306;12.862;2024-03-08T05:59:09;23.10;;;10.47;;
12042;SDS011;6082;49.306;12.862;2024-03-08T06:01:35;20.47;;;10.77;;
12042;SDS011;6082;49.306;12.862;2024-03-08T06:04:05;21.00;;;9.80;;
12042;SDS011;6082;49.306;12.862;2024-03-08T06:06:32;24.50;;;11.07;;
12042;SDS011;6082;49.306;12.862;2024-03-08T06:08:58;25.07;;;10.60;;
12042;SDS011;6082;49.306;12.862;2024-03-08T06:11:24;26.00;;;11.73;;
12042;SDS011;6082;49.306;12.862;2024-03-08T06:13:55;22.17;;;10.60;;
12042;SDS011;6082;49.306;12.862;2024-03-08T06:16:25;25.03;;;11.20;;
12042;SDS011;6082;49.306;12.862;2024-03-08T06:18:54;25.07;;;11.37;;
12042;SDS011;6082;49.306;12.862;2024-03-08T06:21:22;25.43;;;10.97;;
12042;SDS011;6082;49.306;12.862;2024-03-08T06:23:48;25.50;;;10.83;;
12042;SDS011;6082;49.306;12.862;2024-03-08T06:26:13;25.63;;;12.03;;
12042;SDS011;6082;49.306;12.862;2024-03-08T06:28:39;31.30;;;11.67;;
12042;SDS011;6082;49.306;12.862;2024-03-08T06:31:05;22.80;;;10.93;;
12042;SDS011;6082;49.306;12.862;2024-03-08T06:33:32;25.23;;;11.57;;
12042;SDS011;6082;49.306;12.862;2024-03-08T06:35:57;28.53;;;12.43;;
12042;SDS011;6082;49.306;12.862;2024-03-08T06:38:23;27.10;;;12.23;;
12042;SDS011;6082;49.306;12.862;2024-03-08T06:40:49;23.93;;;10.87;;
12042;SDS011;6082;49.306;12.862;2024-03-08T06:43:16;30.27;;;11.40;;
12042;SDS011;6082;49.306;12.862;2024-03-08T06:45:43;24.20;;;12.77;;
12042;SDS011;6082;49.306;12.862;2024-03-08T06:48:18;25.77;;;11.27;;
12042;SDS011;6082;49.306;12.862;2024-03-08T06:50:44;26.03;;;11.60;;
12042;SDS011;6082;49.306;12.862;2024-03-08T06:53:11;23.97;;;12.00;;
12042;SDS011;6082;49.306;12.862;2024-03-08T06:55:37;26.07;;;12.03;;
12042;SDS011;6082;49.306;12.862;2024-03-08T06:58:03;26.83;;;11.83;;
12042;SDS011;6082;49.306;12.862;2024-03-08T07:00:29;26.27;;;11.23;;
12042;SDS011;6082;49.306;12.862;2024-03-08T07:02:58;30.03;;;11.80;;
12042;SDS011;6082;49.306;12.862;2024-03-08T07:05:29;24.17;;;11.87;;
12042;SDS011;6082;49.306;12.862;2024-03-08T07:07:55;26.17;;;12.40;;
12042;SDS011;6082;49.306;12.862;2024-03-08T07:10:24;30.83;;;12.67;;
12042;SDS011;6082;49.306;12.862;2024-03-08T07:12:50;29.43;;;12.03;;
12042;SDS011;6082;49.306;12.862;2024-03-08T07:15:16;22.00;;;11.40;;
12042;SDS011;6082;49.306;12.862;2024-03-08T07:17:44;26.07;;;10.03;;
12042;SDS011;6082;49.306;12.862;2024-03-08T07:20:11;28.13;;;12.10;;
12042;SDS011;6082;49.306;12.862;2024-03-08T07:22:38;24.53;;;11.37;;
12042;SDS011;6082;49.306;12.862;2024-03-08T07:25:07;28.00;;;12.17;;
12042;SDS011;6082;49.306;12.862;2024-03-08T07:27:50;22.93;;;10.97;;
12042;SDS011;6082;49.306;12.862;2024-03-08T07:30:17;23.77;;;10.97;;
12042;SDS011;6082;49.306;12.862;2024-03-08T07:33:02;24.47;;;11.30;;
12042;SDS011;6082;49.306;12.862;2024-03-08T07:35:28;29.93;;;10.87;;
12042;SDS011;6082;49.306;12.862;2024-03-08T07:37:54;24.20;;;11.97;;
12042;SDS011;6082;49.306;12.862;2024-03-08T07:40:21;28.90;;;12.23;;
12042;SDS011;6082;49.306;12.862;2024-03-08T07:42:46;21.73;;;11.33;;
12042;SDS011;6082;49.306;12.862;2024-03-08T07:45:12;27.60;;;10.90;;
12042;SDS011;6082;49.306;12.862;2024-03-08T07:47:38;28.60;;;11.63;;
12042;SDS011;6082;49.306;12.862;2024-03-08T07:50:05;25.70;;;11.77;;
12042;SDS011;6082;49.306;12.862;2024-03-08T07:52:33;27.00;;;10.60;;
12042;SDS011;6082;49.306;12.862;2024-03-08T07:55:00;22.03;;;11.47;;
12042;SDS011;6082;49.306;12.862;2024-03-08T07:57:25;22.17;;;9.80;;
12042;SDS011;6082;49.306;12.862;2024-03-08T07:59:51;24.13;;;11.10;;
12042;SDS011;6082;49.306;12.862;2024-03-08T08:02:17;21.07;;;11.17;;
12042;SDS011;6082;49.306;12.862;2024-03-08T08:04:43;23.83;;;9.93;;
12042;SDS011;6082;49.306;12.862;2024-03-08T08:07:10;21.60;;;10.43;;
12042;SDS011;6082;49.306;12.862;2024-03-08T08:09:36;22.07;;;10.10;;
12042;SDS011;6082;49.306;12.862;2024-03-08T08:12:03;22.57;;;10.23;;
12042;SDS011;6082;49.306;12.862;2024-03-08T08:14:29;22.93;;;10.50;;
12042;SDS011;6082;49.306;12.862;2024-03-08T08:16:56;21.70;;;10.20;;
12042;SDS011;6082;49.306;12.862;2024-03-08T08:19:22;17.17;;;8.60;;
12042;SDS011;6082;49.306;12.862;2024-03-08T08:21:48;18.80;;;9.67;;
12042;SDS011;6082;49.306;12.862;2024-03-08T08:24:14;24.73;;;10.00;;
12042;SDS011;6082;49.306;12.862;2024-03-08T08:26:40;19.10;;;8.87;;
12042;SDS011;6082;49.306;12.862;2024-03-08T08:29:06;23.93;;;10.63;;
12042;SDS011;6082;49.306;12.862;2024-03-08T08:31:32;20.77;;;9.23;;
12042;SDS011;6082;49.306;12.862;2024-03-08T08:33:58;21.30;;;10.73;;
12042;SDS011;6082;49.306;12.862;2024-03-08T08:36:24;21.10;;;9.27;;
12042;SDS011;6082;49.306;12.862;2024-03-08T08:38:50;18.60;;;9.40;;
12042;SDS011;6082;49.306;12.862;2024-03-08T08:41:19;20.20;;;9.37;;
12042;SDS011;6082;49.306;12.862;2024-03-08T08:43:46;19.90;;;9.23;;
12042;SDS011;6082;49.306;12.862;2024-03-08T08:46:16;22.37;;;9.57;;
12042;SDS011;6082;49.306;12.862;2024-03-08T08:48:42;22.53;;;9.93;;
12042;SDS011;6082;49.306;12.862;2024-03-08T08:51:10;19.73;;;9.30;;
12042;SDS011;6082;49.306;12.862;2024-03-08T08:53:39;18.57;;;9.67;;
12042;SDS011;6082;49.306;12.862;2024-03-08T08:56:11;20.27;;;9.27;;
12042;SDS011;6082;49.306;12.862;2024-03-08T08:58:46;19.80;;;9.33;;
12042;SDS011;6082;49.306;12.862;2024-03-08T09:01:14;20.27;;;10.13;;
12042;SDS011;6082;49.306;12.862;2024-03-08T09:03:40;16.00;;;8.77;;
12042;SDS011;6082;49.306;12.862;2024-03-08T09:06:09;21.60;;;9.83;;
12042;SDS011;6082;49.306;12.862;2024-03-08T09:08:38;18.53;;;9.67;;
12042;SDS011;6082;49.306;12.862;2024-03-08T09:11:07;19.20;;;9.20;;
12042;SDS011;6082;49.306;12.862;2024-03-08T09:13:33;21.97;;;9.77;;
12042;SDS011;6082;49.306;12.862;2024-03-08T09:15:59;19.07;;;9.10;;
12042;SDS011;6082;49.306;12.862;2024-03-08T09:18:25;16.80;;;8.80;;
12042;SDS011;6082;49.306;12.862;2024-03-08T09:20:51;18.83;;;9.07;;
12042;SDS011;6082;49.306;12.862;2024-03-08T09:23:21;18.37;;;9.03;;
12042;SDS011;6082;49.306;12.862;2024-03-08T09:25:47;15.20;;;8.53;;
12042;SDS011;6082;49.306;12.862;2024-03-08T09:28:13;18.73;;;8.77;;
12042;SDS011;6082;49.306;12.862;2024-03-08T09:30:39;18.97;;;9.20;;
12042;SDS011;6082;49.306;12.862;2024-03-08T09:33:05;18.60;;;9.03;;
12042;SDS011;6082;49.306;12.862;2024-03-08T09:35:32;18.40;;;8.63;;
12042;SDS011;6082;49.306;12.862;2024-03-08T09:37:58;19.50;;;10.67;;
12042;SDS011;6082;49.306;12.862;2024-03-08T09:40:23;18.40;;;9.67;;
12042;SDS011;6082;49.306;12.862;2024-03-08T09:42:50;19.93;;;10.10;;
12042;SDS011;6082;49.306;12.862;2024-03-08T09:45:17;21.20;;;9.40;;
12042;SDS011;6082;49.306;12.862;2024-03-08T09:47:47;18.17;;;8.90;;
12042;SDS011;6082;49.306;12.862;2024-03-08T09:50:14;19.80;;;9.63;;
12042;SDS011;6082;49.306;12.862;2024-03-08T09:52:42;17.83;;;9.50;;
12042;SDS011;6082;49.306;12.862;2024-03-08T09:55:11;18.77;;;8.63;;
12042;SDS011;6082;49.306;12.862;2024-03-08T09:57:37;16.23;;;8.60;;
12042;SDS011;6082;49.306;12.862;2024-03-08T10:00:04;15.23;;;8.10;;
12042;SDS011;6082;49.306;12.862;2024-03-08T10:02:46;16.30;;;8.83;;
12042;SDS011;6082;49.306;12.862;2024-03-08T10:05:13;16.47;;;9.37;;
12042;SDS011;6082;49.306;12.862;2024-03-08T10:07:39;17.20;;;8.57;;
12042;SDS011;6082;49.306;12.862;2024-03-08T10:10:05;17.13;;;9.00;;
12042;SDS011;6082;49.306;12.862;2024-03-08T10:12:34;17.13;;;9.07;;
12042;SDS011;6082;49.306;12.862;2024-03-08T10:15:00;16.53;;;9.17;;
12042;SDS011;6082;49.306;12.862;2024-03-08T10:17:26;19.07;;;9.77;;
12042;SDS011;6082;49.306;12.862;2024-03-08T10:19:57;19.43;;;10.17;;
12042;SDS011;6082;49.306;12.862;2024-03-08T10:22:25;17.97;;;9.20;;
12042;SDS011;6082;49.306;12.862;2024-03-08T10:24:51;15.53;;;8.50;;
12042;SDS011;6082;49.306;12.862;2024-03-08T10:27:17;17.60;;;9.00;;
12042;SDS011;6082;49.306;12.862;2024-03-08T10:29:45;20.97;;;9.10;;
12042;SDS011;6082;49.306;12.862;2024-03-08T10:32:16;17.60;;;9.47;;
12042;SDS011;6082;49.306;12.862;2024-03-08T10:34:42;19.40;;;9.27;;
12042;SDS011;6082;49.306;12.862;2024-03-08T10:37:11;18.60;;;9.23;;
12042;SDS011;6082;49.306;12.862;2024-03-08T10:39:42;19.97;;;10.17;;
12042;SDS011;6082;49.306;12.862;2024-03-08T10:42:17;14.97;;;8.53;;
12042;SDS011;6082;49.306;12.862;2024-03-08T10:47:41;14.80;;;8.23;;
12042;SDS011;6082;49.306;12.862;2024-03-08T10:52:51;15.77;;;8.63;;
12042;SDS011;6082;49.306;12.862;2024-03-08T10:55:17;15.80;;;8.47;;
12042;SDS011;6082;49.306;12.862;2024-03-08T10:57:45;16.80;;;8.50;;
12042;SDS011;6082;49.306;12.862;2024-03-08T11:00:11;16.53;;;8.37;;
12042;SDS011;6082;49.306;12.862;2024-03-08T11:02:38;17.17;;;8.20;;
12042;SDS011;6082;49.306;12.862;2024-03-08T11:05:04;18.03;;;9.10;;
12042;SDS011;6082;49.306;12.862;2024-03-08T11:07:34;15.93;;;8.87;;
12042;SDS011;6082;49.306;12.862;2024-03-08T11:10:03;17.00;;;8.77;;
12042;SDS011;6082;49.306;12.862;2024-03-08T11:12:35;15.63;;;8.40;;
12042;SDS011;6082;49.306;12.862;2024-03-08T11:15:03;16.67;;;9.13;;
12042;SDS011;6082;49.306;12.862;2024-03-08T11:20:08;13.20;;;8.17;;
12042;SDS011;6082;49.306;12.862;2024-03-08T11:22:40;14.67;;;8.63;;
12042;SDS011;6082;49.306;12.862;2024-03-08T11:25:16;17.43;;;8.43;;
12042;SDS011;6082;49.306;12.862;2024-03-08T11:30:36;15.90;;;8.50;;
12042;SDS011;6082;49.306;12.862;2024-03-08T11:33:03;15.27;;;9.07;;
12042;SDS011;6082;49.306;12.862;2024-03-08T11:35:29;15.00;;;8.60;;
12042;SDS011;6082;49.306;12.862;2024-03-08T11:37:57;15.37;;;8.20;;
12042;SDS011;6082;49.306;12.862;2024-03-08T11:40:25;13.03;;;7.33;;
12042;SDS011;6082;49.306;12.862;2024-03-08T11:42:51;15.03;;;7.87;;
12042;SDS011;6082;49.306;12.862;2024-03-08T11:45:17;12.00;;;7.40;;
12042;SDS011;6082;49.306;12.862;2024-03-08T11:47:46;13.17;;;7.47;;
12042;SDS011;6082;49.306;12.862;2024-03-08T11:50:12;14.67;;;7.47;;
12042;SDS011;6082;49.306;12.862;2024-03-08T11:52:39;15.63;;;7.40;;
12042;SDS011;6082;49.306;12.862;2024-03-08T11:55:05;12.87;;;6.53;;
12042;SDS011;6082;49.306;12.862;2024-03-08T11:57:31;14.73;;;7.90;;
12042;SDS011;6082;49.306;12.862;2024-03-08T11:59:57;12.07;;;7.50;;
12042;SDS011;6082;49.306;12.862;2024-03-08T12:02:31;14.00;;;7.23;;
12042;SDS011;6082;49.306;12.862;2024-03-08T12:04:58;14.77;;;7.13;;
12042;SDS011;6082;49.306;12.862;2024-03-08T12:07:25;12.23;;;7.20;;
12042;SDS011;6082;49.306;12.862;2024-03-08T12:12:44;15.00;;;7.50;;
12042;SDS011;6082;49.306;12.862;2024-03-08T12:15:16;13.73;;;7.47;;
12042;SDS011;6082;49.306;12.862;2024-03-08T12:17:47;12.80;;;7.23;;
12042;SDS011;6082;49.306;12.862;2024-03-08T12:20:18;14.03;;;7.30;;
12042;SDS011;6082;49.306;12.862;2024-03-08T12:22:48;11.77;;;7.03;;
12042;SDS011;6082;49.306;12.862;2024-03-08T12:25:14;13.57;;;7.77;;
12042;SDS011;6082;49.306;12.862;2024-03-08T12:27:41;11.13;;;7.03;;
12042;SDS011;6082;49.306;12.862;2024-03-08T12:30:22;12.47;;;7.20;;
12042;SDS011;6082;49.306;12.862;2024-03-08T12:32:56;12.57;;;7.50;;
12042;SDS011;6082;49.306;12.862;2024-03-08T12:35:25;12.50;;;6.90;;
12042;SDS011;6082;49.306;12.862;2024-03-08T12:37:52;12.63;;;7.20;;
12042;SDS011;6082;49.306;12.862;2024-03-08T12:40:19;12.80;;;7.70;;
12042;SDS011;6082;49.306;12.862;2024-03-08T12:42:56;13.63;;;8.20;;
12042;SDS011;6082;49.306;12.862;2024-03-08T12:45:22;12.73;;;7.57;;
12042;SDS011;6082;49.306;12.862;2024-03-08T12:47:52;14.20;;;7.50;;
12042;SDS011;6082;49.306;12.862;2024-03-08T12:50:20;12.23;;;7.60;;
12042;SDS011;6082;49.306;12.862;2024-03-08T12:52:46;14.70;;;8.03;;
12042;SDS011;6082;49.306;12.862;2024-03-08T12:55:13;13.00;;;8.10;;
12042;SDS011;6082;49.306;12.862;2024-03-08T12:57:41;13.20;;;7.67;;
12042;SDS011;6082;49.306;12.862;2024-03-08T13:00:07;16.33;;;8.17;;
12042;SDS011;6082;49.306;12.862;2024-03-08T13:02:47;13.40;;;7.90;;
12042;SDS011;6082;49.306;12.862;2024-03-08T13:05:13;12.37;;;7.13;;
12042;SDS011;6082;49.306;12.862;2024-03-08T13:07:39;14.17;;;8.17;;
12042;SDS011;6082;49.306;12.862;2024-03-08T13:10:10;13.97;;;7.83;;
12042;SDS011;6082;49.306;12.862;2024-03-08T13:12:39;16.57;;;8.63;;
12042;SDS011;6082;49.306;12.862;2024-03-08T13:15:06;13.50;;;8.10;;
12042;SDS011;6082;49.306;12.862;2024-03-08T13:17:34;15.00;;;8.00;;
12042;SDS011;6082;49.306;12.862;2024-03-08T13:20:00;12.63;;;8.30;;
12042;SDS011;6082;49.306;12.862;2024-03-08T13:22:26;13.53;;;7.77;;
12042;SDS011;6082;49.306;12.862;2024-03-08T13:24:52;12.80;;;7.13;;
12042;SDS011;6082;49.306;12.862;2024-03-08T13:27:18;13.43;;;8.03;;
12042;SDS011;6082;49.306;12.862;2024-03-08T13:29:47;11.57;;;7.50;;
12042;SDS011;6082;49.306;12.862;2024-03-08T13:32:17;16.27;;;8.17;;
12042;SDS011;6082;49.306;12.862;2024-03-08T13:34:45;15.67;;;8.47;;
12042;SDS011;6082;49.306;12.862;2024-03-08T13:37:16;13.43;;;7.43;;
12042;SDS011;6082;49.306;12.862;2024-03-08T13:39:42;16.40;;;7.87;;
12042;SDS011;6082;49.306;12.862;2024-03-08T13:42:11;13.63;;;7.17;;
12042;SDS011;6082;49.306;12.862;2024-03-08T13:44:47;13.40;;;7.80;;
12042;SDS011;6082;49.306;12.862;2024-03-08T13:47:18;12.23;;;7.13;;
12042;SDS011;6082;49.306;12.862;2024-03-08T13:49:44;13.87;;;6.97;;
12042;SDS011;6082;49.306;12.862;2024-03-08T13:52:11;12.57;;;7.27;;
12042;SDS011;6082;49.306;12.862;2024-03-08T13:54:41;11.43;;;7.10;;
12042;SDS011;6082;49.306;12.862;2024-03-08T13:57:07;12.03;;;6.97;;
12042;SDS011;6082;49.306;12.862;2024-03-08T13:59:33;15.10;;;8.13;;
12042;SDS011;6082;49.306;12.862;2024-03-08T14:02:00;11.70;;;6.70;;
12042;SDS011;6082;49.306;12.862;2024-03-08T14:04:30;13.50;;;7.57;;
12042;SDS011;6082;49.306;12.862;2024-03-08T14:06:56;15.97;;;8.30;;
12042;SDS011;6082;49.306;12.862;2024-03-08T14:09:26;12.90;;;7.67;;
12042;SDS011;6082;49.306;12.862;2024-03-08T14:11:54;14.67;;;7.90;;
12042;SDS011;6082;49.306;12.862;2024-03-08T14:14:23;15.20;;;8.00;;
12042;SDS011;6082;49.306;12.862;2024-03-08T14:16:49;14.37;;;7.70;;
12042;SDS011;6082;49.306;12.862;2024-03-08T14:19:18;14.23;;;7.87;;
12042;SDS011;6082;49.306;12.862;2024-03-08T14:21:44;14.07;;;7.60;;
12042;SDS011;6082;49.306;12.862;2024-03-08T14:24:10;12.27;;;7.50;;
12042;SDS011;6082;49.306;12.862;2024-03-08T14:26:35;15.40;;;8.60;;
12042;SDS011;6082;49.306;12.862;2024-03-08T14:29:03;13.17;;;7.23;;
12042;SDS011;6082;49.306;12.862;2024-03-08T14:31:30;11.90;;;7.43;;
12042;SDS011;6082;49.306;12.862;2024-03-08T14:33:56;13.40;;;8.10;;
12042;SDS011;6082;49.306;12.862;2024-03-08T14:36:23;14.83;;;8.27;;
12042;SDS011;6082;49.306;12.862;2024-03-08T14:38:50;12.80;;;7.00;;
12042;SDS011;6082;49.306;12.862;2024-03-08T14:41:17;14.43;;;7.10;;
12042;SDS011;6082;49.306;12.862;2024-03-08T14:43:43;12.27;;;6.87;;